createdAt,value
2022-12-11T00:00:10.664Z,111.70
2022-12-11T00:01:10.665Z,115.40
2022-12-11T00:02:10.692Z,122.20
2022-12-11T00:03:15.633Z,119.60
2022-12-11T00:04:10.613Z,124.60
2022-12-11T00:05:10.921Z,118.10
2022-12-11T00:06:10.592Z,111.20
2022-12-11T00:07:10.574Z,113.40
2022-12-11T00:08:10.583Z,129.10
2022-12-11T00:09:10.571Z,118.60
2022-12-11T00:10:10.569Z,126.60
2022-12-11T00:11:10.554Z,130.40
2022-12-11T00:12:10.502Z,120.70
2022-12-11T00:13:10.505Z,114.30
2022-12-11T00:14:10.485Z,121.50
2022-12-11T00:15:10.694Z,124.90
2022-12-11T00:16:10.548Z,119.60
2022-12-11T00:17:10.473Z,125.50
2022-12-11T00:18:10.427Z,119.50
2022-12-11T00:19:10.420Z,121.90
2022-12-11T00:20:10.415Z,132.60
2022-12-11T00:21:10.400Z,122.60
2022-12-11T00:22:10.370Z,117.40
2022-12-11T00:23:10.425Z,117.10
2022-12-11T00:24:10.340Z,120.10
2022-12-11T00:25:10.716Z,114.90
2022-12-11T00:26:10.339Z,120.80
2022-12-11T00:27:10.305Z,115.00
2022-12-11T00:28:10.304Z,119.10
2022-12-11T00:29:10.307Z,109.30
2022-12-11T00:30:10.268Z,98.10
2022-12-11T00:31:10.294Z,105.00
2022-12-11T00:32:10.271Z,100.50
2022-12-11T00:33:10.211Z,96.50
2022-12-11T00:34:10.227Z,104.80
2022-12-11T00:35:10.615Z,95.70
2022-12-11T00:36:10.217Z,104.30
2022-12-11T00:37:10.194Z,99.00
2022-12-11T00:38:10.168Z,101.10
2022-12-11T00:39:10.200Z,89.10
2022-12-11T00:40:10.154Z,94.60
2022-12-11T00:41:10.152Z,92.00
2022-12-11T00:42:10.166Z,93.60
2022-12-11T00:43:10.124Z,93.70
2022-12-11T00:44:10.096Z,90.50
2022-12-11T00:45:10.516Z,97.60
2022-12-11T00:46:10.131Z,84.90
2022-12-11T00:47:10.065Z,82.10
2022-12-11T00:48:10.038Z,86.20
2022-12-11T00:49:10.039Z,89.50
2022-12-11T00:50:10.027Z,82.90
2022-12-11T00:51:10.016Z,87.40
2022-12-11T00:52:09.965Z,86.00
2022-12-11T00:53:09.982Z,79.50
2022-12-11T00:54:09.968Z,84.90
2022-12-11T00:55:10.205Z,80.80
2022-12-11T00:56:09.945Z,84.10
2022-12-11T00:57:09.908Z,91.60
2022-12-11T00:58:09.903Z,87.50
2022-12-11T00:59:09.887Z,83.80
2022-12-11T01:00:09.917Z,97.20
2022-12-11T01:01:09.998Z,80.90
2022-12-11T01:02:09.836Z,84.70
2022-12-11T01:03:09.944Z,92.10
2022-12-11T01:04:09.803Z,93.90
2022-12-11T01:05:10.124Z,84.80
2022-12-11T01:06:09.775Z,92.60
2022-12-11T01:07:09.780Z,81.80
2022-12-11T01:08:09.798Z,96.70
2022-12-11T01:09:09.738Z,90.30
2022-12-11T01:10:09.771Z,91.30
2022-12-11T01:11:09.722Z,89.90
2022-12-11T01:12:09.719Z,92.30
2022-12-11T01:13:09.697Z,92.40
2022-12-11T01:14:09.674Z,85.50
2022-12-11T01:15:10.065Z,83.00
2022-12-11T01:16:09.647Z,91.20
2022-12-11T01:17:09.639Z,81.60
2022-12-11T01:18:09.623Z,82.00
2022-12-11T01:19:09.610Z,83.50
2022-12-11T01:20:09.602Z,78.60
2022-12-11T01:21:09.587Z,84.10
2022-12-11T01:22:09.564Z,79.80
2022-12-11T01:23:09.551Z,82.30
2022-12-11T01:24:09.545Z,85.00
2022-12-11T01:25:09.820Z,84.40
2022-12-11T01:26:09.560Z,78.80
2022-12-11T01:27:09.507Z,75.80
2022-12-11T01:28:09.491Z,69.70
2022-12-11T01:29:09.465Z,69.70
2022-12-11T01:30:09.502Z,75.40
2022-12-11T01:31:09.490Z,71.80
2022-12-11T01:32:09.495Z,81.00
2022-12-11T01:33:09.411Z,71.60
2022-12-11T01:34:09.401Z,69.70
2022-12-11T01:35:09.757Z,64.00
2022-12-11T01:36:09.387Z,68.80
2022-12-11T01:37:09.372Z,67.70
2022-12-11T01:38:09.366Z,64.90
2022-12-11T01:39:09.342Z,71.00
2022-12-11T01:40:09.336Z,72.30
2022-12-11T01:41:09.318Z,61.90
2022-12-11T01:42:09.317Z,60.40
2022-12-11T01:43:09.311Z,70.00
2022-12-11T01:44:09.274Z,63.60
2022-12-11T01:45:09.636Z,62.10
2022-12-11T01:46:09.275Z,65.00
2022-12-11T01:47:09.245Z,66.70
2022-12-11T01:48:09.227Z,64.80
2022-12-11T01:49:09.193Z,61.90
2022-12-11T01:50:09.197Z,65.20
2022-12-11T01:51:09.193Z,62.60
2022-12-11T01:52:09.199Z,61.90
2022-12-11T01:53:09.178Z,65.30
2022-12-11T01:54:09.147Z,65.80
2022-12-11T01:55:09.488Z,68.10
2022-12-11T01:56:09.117Z,64.20
2022-12-11T01:57:09.094Z,71.50
2022-12-11T01:58:09.109Z,69.40
2022-12-11T01:59:09.096Z,67.80
2022-12-11T02:00:09.088Z,73.00
2022-12-11T02:01:09.088Z,61.50
2022-12-11T02:02:09.095Z,71.10
2022-12-11T02:03:09.029Z,73.70
2022-12-11T02:04:09.009Z,63.90
2022-12-11T02:05:09.388Z,64.00
2022-12-11T02:06:08.988Z,68.90
2022-12-11T02:07:08.961Z,78.50
2022-12-11T02:08:09.018Z,77.60
2022-12-11T02:09:08.969Z,69.60
2022-12-11T02:10:08.963Z,80.20
2022-12-11T02:11:08.920Z,79.70
2022-12-11T02:12:08.948Z,78.30
2022-12-11T02:13:07.879Z,83.00
2022-12-11T02:14:08.890Z,65.60
2022-12-11T02:15:09.245Z,69.00
2022-12-11T02:16:08.882Z,72.70
2022-12-11T02:17:08.833Z,70.90
2022-12-11T02:18:08.869Z,74.30
2022-12-11T02:19:08.808Z,64.60
2022-12-11T02:20:08.796Z,63.70
2022-12-11T02:21:08.783Z,66.90
2022-12-11T02:22:08.770Z,64.70
2022-12-11T02:23:08.772Z,63.20
2022-12-11T02:24:08.762Z,67.40
2022-12-11T02:25:09.235Z,63.10
2022-12-11T02:26:08.729Z,62.60
2022-12-11T02:27:08.703Z,73.80
2022-12-11T02:28:08.705Z,71.80
2022-12-11T02:29:08.676Z,67.10
2022-12-11T02:30:08.677Z,74.00
2022-12-11T02:31:08.685Z,63.20
2022-12-11T02:32:08.635Z,70.10
2022-12-11T02:33:08.642Z,62.50
2022-12-11T02:34:08.622Z,67.40
2022-12-11T02:35:09.062Z,71.10
2022-12-11T02:36:08.648Z,77.80
2022-12-11T02:37:08.571Z,82.90
2022-12-11T02:38:08.572Z,80.10
2022-12-11T02:39:08.538Z,78.70
2022-12-11T02:40:08.537Z,76.80
2022-12-11T02:41:08.519Z,81.00
2022-12-11T02:42:08.497Z,80.20
2022-12-11T02:43:08.492Z,72.50
2022-12-11T02:44:08.539Z,74.80
2022-12-11T02:45:08.760Z,74.40
2022-12-11T02:46:08.498Z,73.10
2022-12-11T02:47:08.430Z,77.00
2022-12-11T02:48:08.424Z,74.00
2022-12-11T02:49:08.398Z,81.50
2022-12-11T02:50:08.427Z,73.30
2022-12-11T02:51:08.370Z,71.00
2022-12-11T02:52:08.366Z,67.70
2022-12-11T02:53:08.384Z,62.50
2022-12-11T02:54:08.336Z,56.10
2022-12-11T02:55:08.557Z,62.30
2022-12-11T02:56:08.313Z,60.30
2022-12-11T02:57:08.296Z,57.80
2022-12-11T02:58:08.310Z,59.40
2022-12-11T02:59:08.284Z,56.70
2022-12-11T03:00:08.264Z,62.20
2022-12-11T03:01:08.285Z,56.10
2022-12-11T03:02:08.265Z,58.20
2022-12-11T03:03:08.231Z,59.00
2022-12-11T03:04:08.227Z,63.50
2022-12-11T03:05:08.638Z,57.10
2022-12-11T03:06:08.175Z,55.30
2022-12-11T03:07:08.160Z,60.20
2022-12-11T03:08:08.202Z,58.20
2022-12-11T03:09:08.130Z,52.00
2022-12-11T03:10:08.163Z,55.20
2022-12-11T03:11:08.106Z,59.50
2022-12-11T03:12:08.107Z,49.70
2022-12-11T03:13:08.160Z,57.90
2022-12-11T03:14:08.057Z,51.90
2022-12-11T03:15:08.261Z,54.10
2022-12-11T03:16:08.109Z,63.10
2022-12-11T03:17:08.146Z,58.50
2022-12-11T03:18:08.037Z,58.10
2022-12-11T03:19:08.032Z,59.70
2022-12-11T03:20:08.054Z,58.50
2022-12-11T03:21:07.979Z,54.00
2022-12-11T03:22:07.953Z,51.20
2022-12-11T03:23:07.965Z,64.80
2022-12-11T03:24:07.930Z,61.00
2022-12-11T03:25:08.486Z,54.80
2022-12-11T03:26:07.914Z,58.00
2022-12-11T03:27:11.171Z,55.40
2022-12-11T03:28:07.889Z,62.50
2022-12-11T03:29:07.881Z,50.90
2022-12-11T03:30:07.856Z,51.60
2022-12-11T03:31:07.925Z,58.70
2022-12-11T03:32:07.831Z,61.00
2022-12-11T03:33:07.816Z,55.10
2022-12-11T03:34:07.820Z,55.00
2022-12-11T03:35:07.786Z,53.50
2022-12-11T03:36:07.779Z,57.40
2022-12-11T03:37:07.760Z,53.40
2022-12-11T03:38:07.770Z,58.10
2022-12-11T03:39:07.756Z,51.60
2022-12-11T03:40:07.736Z,54.80
2022-12-11T03:41:07.704Z,62.90
2022-12-11T03:42:07.693Z,50.90
2022-12-11T03:43:07.699Z,51.50
2022-12-11T03:44:07.696Z,52.70
2022-12-11T03:45:07.751Z,50.00
2022-12-11T03:46:07.708Z,53.90
2022-12-11T03:47:07.613Z,54.40
2022-12-11T03:48:07.621Z,54.80
2022-12-11T03:49:07.630Z,50.50
2022-12-11T03:50:07.604Z,55.50
2022-12-11T03:51:07.589Z,53.70
2022-12-11T03:52:07.602Z,50.90
2022-12-11T03:53:07.572Z,55.20
2022-12-11T03:54:07.570Z,60.20
2022-12-11T03:55:07.828Z,55.90
2022-12-11T03:56:07.572Z,54.30
2022-12-11T03:57:07.482Z,55.70
2022-12-11T03:58:07.493Z,48.80
2022-12-11T03:59:07.483Z,53.80
2022-12-11T04:00:07.453Z,47.80
2022-12-11T04:01:07.424Z,50.60
2022-12-11T04:02:07.463Z,50.80
2022-12-11T04:03:13.015Z,54.20
2022-12-11T04:04:07.469Z,63.10
2022-12-11T04:05:07.418Z,50.00
2022-12-11T04:06:07.398Z,48.10
2022-12-11T04:07:07.355Z,49.40
2022-12-11T04:08:07.405Z,49.70
2022-12-11T04:09:07.363Z,52.40
2022-12-11T04:10:07.346Z,58.00
2022-12-11T04:11:07.305Z,55.00
2022-12-11T04:12:07.299Z,52.50
2022-12-11T04:13:06.336Z,44.20
2022-12-11T04:14:07.279Z,50.90
2022-12-11T04:15:07.251Z,54.70
2022-12-11T04:16:07.337Z,54.90
2022-12-11T04:17:07.217Z,58.10
2022-12-11T04:18:07.205Z,53.40
2022-12-11T04:19:07.217Z,51.80
2022-12-11T04:20:07.181Z,58.00
2022-12-11T04:21:07.184Z,52.50
2022-12-11T04:22:07.165Z,55.90
2022-12-11T04:23:07.158Z,53.60
2022-12-11T04:24:07.144Z,58.70
2022-12-11T04:25:07.129Z,63.60
2022-12-11T04:26:07.118Z,65.20
2022-12-11T04:27:07.092Z,62.90
2022-12-11T04:28:07.091Z,53.10
2022-12-11T04:29:07.082Z,62.00
2022-12-11T04:30:07.085Z,57.80
2022-12-11T04:31:07.102Z,58.90
2022-12-11T04:32:07.036Z,66.50
2022-12-11T04:33:07.025Z,64.50
2022-12-11T04:34:07.012Z,61.10
2022-12-11T04:35:06.994Z,63.50
2022-12-11T04:36:06.976Z,69.90
2022-12-11T04:37:06.945Z,63.40
2022-12-11T04:38:06.952Z,72.30
2022-12-11T04:39:06.924Z,63.80
2022-12-11T04:40:06.927Z,66.00
2022-12-11T04:41:06.900Z,60.60
2022-12-11T04:42:06.915Z,61.40
2022-12-11T04:43:06.888Z,58.60
2022-12-11T04:44:06.872Z,65.80
2022-12-11T04:45:06.854Z,65.60
2022-12-11T04:46:06.856Z,60.90
2022-12-11T04:47:06.823Z,62.70
2022-12-11T04:48:06.821Z,61.70
2022-12-11T04:49:06.791Z,65.60
2022-12-11T04:50:06.830Z,61.90
2022-12-11T04:51:06.765Z,66.60
2022-12-11T04:52:06.751Z,63.60
2022-12-11T04:53:06.753Z,59.60
2022-12-11T04:54:06.744Z,59.30
2022-12-11T04:55:06.746Z,64.00
2022-12-11T04:56:06.712Z,62.10
2022-12-11T04:57:06.686Z,67.50
2022-12-11T04:58:06.668Z,63.60
2022-12-11T04:59:06.674Z,62.30
2022-12-11T05:00:06.684Z,59.50
2022-12-11T05:01:06.645Z,70.80
2022-12-11T05:02:06.692Z,70.20
2022-12-11T05:03:06.653Z,65.30
2022-12-11T05:04:06.606Z,63.90
2022-12-11T05:05:06.620Z,60.20
2022-12-11T05:06:06.580Z,58.60
2022-12-11T05:07:06.557Z,59.10
2022-12-11T05:08:06.603Z,54.80
2022-12-11T05:09:06.520Z,60.00
2022-12-11T05:10:06.548Z,56.00
2022-12-11T05:11:06.499Z,60.10
2022-12-11T05:12:06.489Z,57.90
2022-12-11T05:13:06.473Z,57.50
2022-12-11T05:14:06.484Z,47.80
2022-12-11T05:15:06.455Z,57.50
2022-12-11T05:16:06.442Z,54.80
2022-12-11T05:17:06.416Z,50.70
2022-12-11T05:18:06.417Z,54.50
2022-12-11T05:19:06.407Z,47.80
2022-12-11T05:20:06.394Z,41.60
2022-12-11T05:21:06.381Z,48.30
2022-12-11T05:22:06.370Z,46.60
2022-12-11T05:23:06.327Z,46.20
2022-12-11T05:24:06.368Z,52.60
2022-12-11T05:25:06.311Z,44.10
2022-12-11T05:26:06.306Z,45.30
2022-12-11T05:27:06.283Z,49.60
2022-12-11T05:28:06.285Z,44.00
2022-12-11T05:29:06.297Z,41.30
2022-12-11T05:30:06.285Z,42.90
2022-12-11T05:31:06.341Z,52.30
2022-12-11T05:32:06.216Z,45.90
2022-12-11T05:33:06.210Z,45.60
2022-12-11T05:34:06.213Z,47.70
2022-12-11T05:35:06.178Z,41.70
2022-12-11T05:36:06.185Z,39.10
2022-12-11T05:37:06.140Z,46.80
2022-12-11T05:38:06.153Z,45.80
2022-12-11T05:39:06.149Z,43.50
2022-12-11T05:40:06.367Z,53.70
2022-12-11T05:41:06.115Z,44.60
2022-12-11T05:42:06.081Z,48.80
2022-12-11T05:43:06.069Z,42.50
2022-12-11T05:44:06.101Z,49.50
2022-12-11T05:45:06.046Z,43.20
2022-12-11T05:46:06.052Z,44.10
2022-12-11T05:47:06.013Z,41.90
2022-12-11T05:48:06.006Z,45.70
2022-12-11T05:49:06.008Z,54.00
2022-12-11T05:50:05.975Z,42.90
2022-12-11T05:51:05.981Z,45.40
2022-12-11T05:52:05.938Z,48.00
2022-12-11T05:53:05.932Z,48.10
2022-12-11T05:54:05.943Z,44.00
2022-12-11T05:55:06.008Z,50.80
2022-12-11T05:56:05.914Z,49.20
2022-12-11T05:57:05.896Z,47.50
2022-12-11T05:58:05.885Z,61.50
2022-12-11T05:59:05.885Z,48.00
2022-12-11T06:00:05.856Z,47.60
2022-12-11T06:01:05.850Z,55.30
2022-12-11T06:02:05.919Z,48.20
2022-12-11T06:03:05.949Z,55.40
2022-12-11T06:04:05.801Z,55.80
2022-12-11T06:05:05.796Z,53.10
2022-12-11T06:06:05.776Z,49.00
2022-12-11T06:07:05.759Z,52.00
2022-12-11T06:08:05.785Z,56.40
2022-12-11T06:09:05.772Z,52.40
2022-12-11T06:10:05.708Z,52.40
2022-12-11T06:11:05.697Z,54.90
2022-12-11T06:12:07.266Z,51.30
2022-12-11T06:13:05.723Z,53.20
2022-12-11T06:14:05.703Z,47.90
2022-12-11T06:15:05.641Z,58.60
2022-12-11T06:16:05.820Z,53.60
2022-12-11T06:17:05.645Z,55.80
2022-12-11T06:18:05.783Z,61.50
2022-12-11T06:19:05.646Z,60.10
2022-12-11T06:20:05.606Z,54.90
2022-12-11T06:21:05.569Z,56.30
2022-12-11T06:22:05.558Z,51.10
2022-12-11T06:23:05.570Z,59.40
2022-12-11T06:24:05.530Z,60.00
2022-12-11T06:25:05.526Z,60.30
2022-12-11T06:26:05.673Z,63.70
2022-12-11T06:27:05.512Z,54.10
2022-12-11T06:28:05.495Z,59.90
2022-12-11T06:29:09.176Z,58.20
2022-12-11T06:30:05.510Z,63.70
2022-12-11T06:31:05.498Z,58.90
2022-12-11T06:32:05.498Z,61.50
2022-12-11T06:33:05.433Z,67.40
2022-12-11T06:34:05.418Z,67.60
2022-12-11T06:35:05.396Z,65.00
2022-12-11T06:36:05.395Z,72.10
2022-12-11T06:37:05.385Z,66.00
2022-12-11T06:38:05.371Z,57.70
2022-12-11T06:39:05.354Z,58.30
2022-12-11T06:40:05.348Z,72.90
2022-12-11T06:41:05.328Z,73.40
2022-12-11T06:42:05.284Z,82.20
2022-12-11T06:43:05.294Z,71.20
2022-12-11T06:44:07.396Z,71.40
2022-12-11T06:45:05.280Z,64.20
2022-12-11T06:46:05.352Z,64.40
2022-12-11T06:47:05.381Z,70.50
2022-12-11T06:48:05.235Z,68.70
2022-12-11T06:49:05.222Z,69.70
2022-12-11T06:50:05.319Z,72.70
2022-12-11T06:51:05.165Z,62.70
2022-12-11T06:52:05.182Z,74.10
2022-12-11T06:53:05.160Z,70.70
2022-12-11T06:54:05.126Z,67.50
2022-12-11T06:55:05.128Z,65.40
2022-12-11T06:56:05.104Z,74.00
2022-12-11T06:57:05.163Z,62.20
2022-12-11T06:58:05.120Z,80.50
2022-12-11T06:59:07.437Z,66.40
2022-12-11T07:00:05.053Z,73.50
2022-12-11T07:01:05.160Z,73.20
2022-12-11T07:02:05.195Z,69.40
2022-12-11T07:03:05.062Z,64.80
2022-12-11T07:04:05.029Z,69.70
2022-12-11T07:05:05.039Z,68.50
2022-12-11T07:06:05.022Z,72.20
2022-12-11T07:07:05.013Z,67.40
2022-12-11T07:08:04.982Z,75.80
2022-12-11T07:09:04.928Z,74.80
2022-12-11T07:10:08.239Z,71.00
2022-12-11T07:11:04.971Z,70.70
2022-12-11T07:12:04.912Z,72.60
2022-12-11T07:13:04.885Z,87.10
2022-12-11T07:14:04.850Z,74.00
2022-12-11T07:15:04.843Z,72.40
2022-12-11T07:16:04.923Z,70.20
2022-12-11T07:17:04.829Z,76.90
2022-12-11T07:18:03.789Z,80.50
2022-12-11T07:19:04.814Z,70.70
2022-12-11T07:20:04.791Z,68.60
2022-12-11T07:21:04.759Z,68.80
2022-12-11T07:22:04.749Z,77.20
2022-12-11T07:23:03.724Z,81.30
2022-12-11T07:24:04.740Z,76.80
2022-12-11T07:25:04.766Z,75.20
2022-12-11T07:26:04.688Z,71.60
2022-12-11T07:27:04.697Z,76.50
2022-12-11T07:28:04.667Z,67.50
2022-12-11T07:29:04.664Z,87.40
2022-12-11T07:30:04.647Z,76.00
2022-12-11T07:31:04.683Z,79.30
2022-12-11T07:32:04.751Z,75.80
2022-12-11T07:33:04.648Z,72.90
2022-12-11T07:34:04.578Z,70.90
2022-12-11T07:35:04.581Z,82.20
2022-12-11T07:36:04.562Z,78.70
2022-12-11T07:37:04.599Z,73.30
2022-12-11T07:38:04.526Z,78.80
2022-12-11T07:39:04.515Z,84.70
2022-12-11T07:40:04.822Z,84.10
2022-12-11T07:41:04.509Z,77.80
2022-12-11T07:42:04.494Z,81.90
2022-12-11T07:43:04.518Z,82.50
2022-12-11T07:44:04.445Z,74.80
2022-12-11T07:45:04.454Z,93.40
2022-12-11T07:46:04.564Z,83.10
2022-12-11T07:47:04.447Z,75.40
2022-12-11T07:48:04.400Z,78.40
2022-12-11T07:49:04.374Z,87.20
2022-12-11T07:50:04.364Z,91.20
2022-12-11T07:51:04.372Z,88.20
2022-12-11T07:52:04.362Z,81.50
2022-12-11T07:53:04.332Z,90.00
2022-12-11T07:54:04.329Z,81.40
2022-12-11T07:55:04.304Z,78.90
2022-12-11T07:56:04.320Z,83.40
2022-12-11T07:57:04.900Z,73.40
2022-12-11T07:58:04.258Z,89.50
2022-12-11T07:59:03.253Z,86.60
2022-12-11T08:00:04.245Z,82.10
2022-12-11T08:01:04.273Z,74.50
2022-12-11T08:02:04.263Z,89.70
2022-12-11T08:03:04.195Z,79.50
2022-12-11T08:04:04.196Z,81.10
2022-12-11T08:05:04.177Z,80.90
2022-12-11T08:06:04.161Z,80.10
2022-12-11T08:07:04.139Z,83.60
2022-12-11T08:08:04.217Z,83.30
2022-12-11T08:09:04.137Z,78.00
2022-12-11T08:10:04.097Z,87.50
2022-12-11T08:11:04.099Z,78.30
2022-12-11T08:12:04.079Z,80.00
2022-12-11T08:13:04.073Z,80.30
2022-12-11T08:14:04.054Z,85.60
2022-12-11T08:15:04.072Z,89.80
2022-12-11T08:16:04.032Z,85.40
2022-12-11T08:17:04.104Z,81.50
2022-12-11T08:18:04.007Z,81.30
2022-12-11T08:19:03.999Z,82.20
2022-12-11T08:20:03.969Z,76.60
2022-12-11T08:21:03.978Z,74.50
2022-12-11T08:22:03.940Z,86.00
2022-12-11T08:23:03.955Z,72.50
2022-12-11T08:24:03.930Z,77.30
2022-12-11T08:25:03.932Z,80.30
2022-12-11T08:26:03.920Z,89.40
2022-12-11T08:27:03.876Z,80.40
2022-12-11T08:28:03.864Z,71.20
2022-12-11T08:29:03.853Z,75.80
2022-12-11T08:30:03.842Z,84.30
2022-12-11T08:31:03.877Z,91.00
2022-12-11T08:32:08.975Z,82.70
2022-12-11T08:33:03.833Z,78.10
2022-12-11T08:34:03.776Z,90.60
2022-12-11T08:35:03.767Z,90.20
2022-12-11T08:36:03.771Z,87.70
2022-12-11T08:37:03.755Z,77.00
2022-12-11T08:38:03.832Z,86.70
2022-12-11T08:39:03.720Z,85.40
2022-12-11T08:40:03.731Z,80.90
2022-12-11T08:41:03.725Z,82.90
2022-12-11T08:42:03.667Z,82.10
2022-12-11T08:43:03.681Z,83.90
2022-12-11T08:44:05.974Z,77.70
2022-12-11T08:45:03.633Z,77.80
2022-12-11T08:46:03.701Z,85.10
2022-12-11T08:47:03.634Z,79.80
2022-12-11T08:48:03.606Z,78.60
2022-12-11T08:49:03.615Z,84.70
2022-12-11T08:50:03.598Z,92.00
2022-12-11T08:51:03.564Z,80.90
2022-12-11T08:52:03.546Z,88.50
2022-12-11T08:53:03.574Z,90.50
2022-12-11T08:54:03.532Z,87.40
2022-12-11T08:55:03.516Z,78.70
2022-12-11T08:56:03.483Z,90.10
2022-12-11T08:57:03.490Z,82.00
2022-12-11T08:58:03.455Z,80.40
2022-12-11T08:59:03.473Z,88.20
2022-12-11T09:00:03.423Z,81.60
2022-12-11T09:01:03.476Z,87.80
2022-12-11T09:02:03.411Z,80.80
2022-12-11T09:03:05.328Z,83.00
2022-12-11T09:04:03.394Z,87.10
2022-12-11T09:05:03.398Z,82.20
2022-12-11T09:06:03.364Z,91.40
2022-12-11T09:07:03.360Z,84.70
2022-12-11T09:08:03.406Z,87.20
2022-12-11T09:09:03.761Z,87.40
2022-12-11T09:10:03.326Z,86.90
2022-12-11T09:11:03.299Z,84.40
2022-12-11T09:12:03.270Z,90.40
2022-12-11T09:13:03.259Z,90.50
2022-12-11T09:14:07.193Z,84.10
2022-12-11T09:15:03.242Z,94.10
2022-12-11T09:16:03.234Z,97.70
2022-12-11T09:17:03.270Z,94.30
2022-12-11T09:18:03.204Z,92.90
2022-12-11T09:19:03.216Z,97.60
2022-12-11T09:20:03.210Z,101.30
2022-12-11T09:21:03.176Z,98.20
2022-12-11T09:22:03.143Z,83.70
2022-12-11T09:23:03.129Z,94.70
2022-12-11T09:24:03.125Z,89.50
2022-12-11T09:25:03.111Z,91.40
2022-12-11T09:26:03.078Z,86.40
2022-12-11T09:27:03.069Z,90.40
2022-12-11T09:28:03.061Z,99.00
2022-12-11T09:29:03.095Z,93.50
2022-12-11T09:30:03.021Z,102.20
2022-12-11T09:31:03.083Z,96.40
2022-12-11T09:32:03.017Z,93.90
2022-12-11T09:33:03.114Z,97.50
2022-12-11T09:34:03.004Z,105.30
2022-12-11T09:35:02.970Z,84.10
2022-12-11T09:36:02.972Z,90.80
2022-12-11T09:37:02.937Z,96.00
2022-12-11T09:38:02.925Z,105.60
2022-12-11T09:39:02.934Z,118.50
2022-12-11T09:40:07.552Z,99.30
2022-12-11T09:41:02.895Z,97.40
2022-12-11T09:42:02.864Z,90.30
2022-12-11T09:43:02.876Z,102.20
2022-12-11T09:44:02.875Z,101.40
2022-12-11T09:45:02.844Z,91.50
2022-12-11T09:46:02.871Z,100.30
2022-12-11T09:47:02.817Z,99.80
2022-12-11T09:48:02.791Z,102.60
2022-12-11T09:49:02.811Z,97.80
2022-12-11T09:50:02.770Z,82.60
2022-12-11T09:51:02.758Z,88.10
2022-12-11T09:52:02.746Z,100.40
2022-12-11T09:53:02.744Z,102.00
2022-12-11T09:54:02.722Z,100.70
2022-12-11T09:55:02.725Z,86.90
2022-12-11T09:56:02.723Z,95.90
2022-12-11T09:57:02.680Z,96.70
2022-12-11T09:58:02.686Z,101.50
2022-12-11T09:59:02.723Z,100.30
2022-12-11T10:00:05.100Z,93.00
2022-12-11T10:01:02.758Z,96.20
2022-12-11T10:02:02.612Z,88.70
2022-12-11T10:03:02.688Z,95.20
2022-12-11T10:04:02.614Z,96.90
2022-12-11T10:05:02.565Z,101.50
2022-12-11T10:06:04.784Z,93.80
2022-12-11T10:07:02.543Z,93.70
2022-12-11T10:08:02.630Z,91.00
2022-12-11T10:09:02.523Z,94.90
2022-12-11T10:10:02.508Z,98.60
2022-12-11T10:11:02.495Z,91.80
2022-12-11T10:12:02.481Z,91.80
2022-12-11T10:13:02.461Z,97.30
2022-12-11T10:14:02.467Z,101.20
2022-12-11T10:15:02.470Z,93.60
2022-12-11T10:16:02.459Z,98.30
2022-12-11T10:17:02.427Z,101.80
2022-12-11T10:18:05.219Z,94.10
2022-12-11T10:19:02.402Z,94.60
2022-12-11T10:20:02.370Z,94.50
2022-12-11T10:21:02.356Z,97.60
2022-12-11T10:22:02.342Z,93.80
2022-12-11T10:23:02.326Z,91.70
2022-12-11T10:24:02.317Z,102.50
2022-12-11T10:25:11.519Z,103.60
2022-12-11T10:26:02.293Z,96.20
2022-12-11T10:27:02.278Z,87.50
2022-12-11T10:28:02.270Z,94.40
2022-12-11T10:29:02.239Z,100.70
2022-12-11T10:30:02.259Z,86.40
2022-12-11T10:31:02.277Z,97.50
2022-12-11T10:32:02.210Z,84.40
2022-12-11T10:33:02.185Z,87.00
2022-12-11T10:34:02.227Z,90.20
2022-12-11T10:35:02.185Z,98.80
2022-12-11T10:36:02.194Z,100.60
2022-12-11T10:37:02.142Z,87.70
2022-12-11T10:38:02.139Z,93.00
2022-12-11T10:39:02.135Z,87.60
2022-12-11T10:40:02.118Z,83.80
2022-12-11T10:41:02.097Z,100.70
2022-12-11T10:42:02.108Z,86.10
2022-12-11T10:43:02.080Z,91.60
2022-12-11T10:44:02.048Z,96.90
2022-12-11T10:45:02.068Z,88.40
2022-12-11T10:46:02.078Z,93.50
2022-12-11T10:47:02.053Z,93.60
2022-12-11T10:48:02.016Z,102.50
2022-12-11T10:49:01.979Z,91.60
2022-12-11T10:50:01.991Z,90.80
2022-12-11T10:51:01.952Z,84.80
2022-12-11T10:52:01.942Z,86.40
2022-12-11T10:53:01.918Z,93.40
2022-12-11T10:54:07.024Z,99.90
2022-12-11T10:55:01.938Z,92.80
2022-12-11T10:56:01.943Z,94.40
2022-12-11T10:57:01.879Z,89.40
2022-12-11T10:58:01.872Z,83.40
2022-12-11T10:59:01.844Z,80.50
2022-12-11T11:00:01.851Z,94.70
2022-12-11T11:01:01.808Z,85.30
2022-12-11T11:02:01.837Z,88.90
2022-12-11T11:03:01.833Z,91.00
2022-12-11T11:04:01.786Z,92.10
2022-12-11T11:05:01.781Z,90.10
2022-12-11T11:06:01.759Z,88.00
2022-12-11T11:07:01.740Z,100.00
2022-12-11T11:08:01.766Z,90.90
2022-12-11T11:09:01.705Z,90.60
2022-12-11T11:10:01.724Z,90.40
2022-12-11T11:11:01.691Z,82.50
2022-12-11T11:12:07.449Z,90.00
2022-12-11T11:13:01.671Z,89.00
2022-12-11T11:14:01.651Z,81.00
2022-12-11T11:15:01.654Z,90.20
2022-12-11T11:16:01.677Z,77.10
2022-12-11T11:17:01.610Z,89.60
2022-12-11T11:18:01.591Z,84.40
2022-12-11T11:19:01.596Z,81.50
2022-12-11T11:20:01.583Z,89.30
2022-12-11T11:21:01.576Z,90.50
2022-12-11T11:22:01.554Z,88.70
2022-12-11T11:23:01.521Z,84.10
2022-12-11T11:24:01.517Z,87.80
2022-12-11T11:25:01.531Z,84.10
2022-12-11T11:26:01.532Z,83.50
2022-12-11T11:27:13.334Z,86.60
2022-12-11T11:28:01.546Z,84.70
2022-12-11T11:29:01.446Z,84.70
2022-12-11T11:30:01.461Z,87.00
2022-12-11T11:31:01.461Z,77.20
2022-12-11T11:32:01.405Z,87.40
2022-12-11T11:33:01.414Z,82.90
2022-12-11T11:34:01.419Z,85.60
2022-12-11T11:35:01.389Z,88.40
2022-12-11T11:36:01.367Z,81.20
2022-12-11T11:37:02.142Z,83.70
2022-12-11T11:38:01.336Z,79.50
2022-12-11T11:39:01.308Z,82.60
2022-12-11T11:40:01.298Z,86.10
2022-12-11T11:41:06.567Z,88.60
2022-12-11T11:42:01.286Z,79.10
2022-12-11T11:43:01.249Z,80.00
2022-12-11T11:44:01.246Z,79.60
2022-12-11T11:45:01.233Z,91.70
2022-12-11T11:46:01.226Z,83.50
2022-12-11T11:47:01.193Z,82.80
2022-12-11T11:48:03.150Z,80.40
2022-12-11T11:49:01.181Z,83.00
2022-12-11T11:50:01.159Z,77.30
2022-12-11T11:51:01.190Z,77.60
2022-12-11T11:52:01.134Z,79.90
2022-12-11T11:53:01.160Z,74.20
2022-12-11T11:54:01.113Z,75.30
2022-12-11T11:55:01.122Z,73.90
2022-12-11T11:56:01.126Z,74.20
2022-12-11T11:57:01.067Z,68.40
2022-12-11T11:58:01.050Z,75.10
2022-12-11T11:59:01.028Z,78.80
2022-12-11T12:00:01.034Z,78.10
2022-12-11T12:01:01.017Z,86.30
2022-12-11T12:02:01.000Z,78.80
2022-12-11T12:03:01.030Z,77.20
2022-12-11T12:04:00.985Z,74.50
2022-12-11T12:05:00.963Z,73.70
2022-12-11T12:06:01.002Z,72.70
2022-12-11T12:07:00.939Z,72.30
2022-12-11T12:08:00.977Z,75.40
2022-12-11T12:09:00.949Z,69.10
2022-12-11T12:10:00.929Z,72.50
2022-12-11T12:11:00.933Z,68.10
2022-12-11T12:12:00.883Z,68.20
2022-12-11T12:13:00.849Z,59.80
2022-12-11T12:14:00.864Z,68.30
2022-12-11T12:15:00.853Z,68.80
2022-12-11T12:16:00.904Z,63.40
2022-12-11T12:17:00.921Z,67.90
2022-12-11T12:18:00.788Z,66.50
2022-12-11T12:19:00.794Z,66.00
2022-12-11T12:20:00.769Z,64.80
2022-12-11T12:21:00.760Z,69.80
2022-12-11T12:22:00.740Z,66.90
2022-12-11T12:23:00.758Z,64.60
2022-12-11T12:24:00.735Z,67.60
2022-12-11T12:25:00.788Z,63.60
2022-12-11T12:26:00.690Z,69.10
2022-12-11T12:27:00.705Z,66.10
2022-12-11T12:28:00.677Z,68.80
2022-12-11T12:29:00.648Z,61.20
2022-12-11T12:30:00.634Z,59.40
2022-12-11T12:31:00.634Z,60.40
2022-12-11T12:31:59.616Z,62.20
2022-12-11T12:33:00.588Z,63.80
2022-12-11T12:34:00.587Z,63.80
2022-12-11T12:35:00.575Z,66.90
2022-12-11T12:36:06.406Z,63.70
2022-12-11T12:37:00.546Z,62.80
2022-12-11T12:38:00.573Z,59.30
2022-12-11T12:39:00.588Z,69.60
2022-12-11T12:40:00.552Z,62.10
2022-12-11T12:41:00.638Z,63.40
2022-12-11T12:42:05.754Z,70.20
2022-12-11T12:43:00.452Z,62.70
2022-12-11T12:44:00.514Z,59.70
2022-12-11T12:45:00.605Z,63.50
2022-12-11T12:46:00.542Z,57.50
2022-12-11T12:47:00.520Z,54.90
2022-12-11T12:48:00.426Z,55.90
2022-12-11T12:49:00.378Z,54.60
2022-12-11T12:50:00.369Z,58.90